LIPXLEIB

Guest
Details From LIPX - Villafranca
To LEIB - Ibiza
Flight Number -
Tags Generated
Created
Modified
Stats Distance 577 nm / 1,068 km
Max Altitude 0 ft / 0 m
Waypoints 4
Social Downloads 0
Likes 0
Share VATSIM

Download

Looking for another format? Having issues loading an existing format? Contact us
Advertisement - Login to hide

Notes

Generated

Route

LIPX RASPA IBZ45 LEIB

ID Type Via Altitude Latitude Longitude Leg Dist Tot Dist Heading (true) Name
O LIPX APT - 0 ft / 0 m 45.38732˚ 10.87633˚ - 0 nm - -
RASPA FIX - 0 ft / 0 m 42.15778˚ 5.39639˚ 306 nm 306 nm 233° / 229° -
IBZ45 FIX - 0 ft / 0 m 38.88052˚ 1.38531˚ 268 nm 575 nm 224° / 222° -
O LEIB APT - 0 ft / 0 m 38.86694˚ 1.35887˚ 1 nm 576 nm 237° / 237° -

Altitude Profile

Advertisement - Login to hide

Weather


0- 5 10 15 20 25 30 35+ Temperature / ° C

Clouds and Precipitation
Forecast for 2017-12-11 12:00 UTC. Updated 4 minutes ago

Ground ~20,000 ft ~40,000 ft Winds

LIPX

Details ICAO LIPX (VRN)
Name VILLAFRANCA
Region Italy
Timezone Europe/Rome (UTC+1.0)
Stats Elevation 239 ft / 73 m (AMSL)
Location 45.396942° 10.890418°
Runways 1
Magnetic Variation 2.859° E

METAR

LIPX 111050Z 24003KT 230V290 4000 -RA BR BKN015 OVC050 01/00 Q0999 R04/2901//

Decode

TAF

Not found

Departure Runways

ID Width Length Bearing (true) Bearing (mag) Surface Threshold Offset Overrun Length
04 148 ft / 45 m 10,072 ft / 3,070 m 45.79° 42.93° Asphalt 189 ft / 58 m 815 ft / 248 m
22 148 ft / 45 m 10,072 ft / 3,070 m 225.81° 222.95° Asphalt 1,345 ft / 410 m 189 ft / 58 m

LEIB

Details ICAO LEIB (IBZ)
Name Ibiza
Region Spain
Timezone Europe/Madrid (UTC+1.0)
Stats Elevation 20 ft / 6 m (AMSL)
Location 38.872871° 1.373045°
Runways 1
Magnetic Variation 0.661° E

METAR

LEIB 111121Z 28015KT 250V320 9999 RA BKN022 13/10 Q0995 NOSIG

Decode

TAF

TAF LEIB 110800Z 1109/1209 23015KT 9999 FEW020 TX17/1109Z TN06/1206Z TEMPO 1109/1120 23018G30KT TEMPO 1109/1113 23032G48KT TEMPO 1109/1116 4000 RA BKN012 BECMG 1123/1202 29007KT

Decode

Destination Runways

ID Width Length Bearing (true) Bearing (mag) Surface Threshold Offset Overrun Length
06 148 ft / 45 m 9,153 ft / 2,790 m 61.85° 61.19° Asphalt 0 ft / 0 m 213 ft / 65 m
24 148 ft / 45 m 9,153 ft / 2,790 m 241.86° 241.20° Asphalt 0 ft / 0 m 197 ft / 60 m

Approach Navaids

Runway Type Ident Frequency Range Bearing (true) Bearing (mag) Slope Elevation
06 Localiser IBI 111.10 MHz 18 nm / 33 km 62.00° 61.34° - 20 ft / 6 m (AMSL)
06 Glidescope IBI 111.10 MHz 10 nm / 19 km 62.00° 61.34° 3.00° 20 ft / 6 m (AMSL)
06 DME IBI 111.10 MHz 18 nm / 33 km - - - 20 ft / 6 m (AMSL)
24 Localiser IBZ 109.50 MHz 18 nm / 33 km 241.81° 241.15° - 15 ft / 5 m (AMSL)
24 Glidescope IBZ 109.50 MHz 10 nm / 19 km 241.86° 241.19° 3.00° 69 ft / 21 m (AMSL)
24 DME IBZ 109.50 MHz 18 nm / 33 km - - - 69 ft / 21 m (AMSL)

Popular Alternatives